Time;durP1;ratioP1;P1;durP2;ratioP2;P2;SDS_P1;SDS_P2;PMS_P1;PMS_P2;Temp;Humidity;BMP_temperature;BMP_pressure;BME280_temperature;BME280_humidity;BME280_pressure;Samples;Min_cycle;Max_cycle;Signal;HPM_P1;HPM_P2
2023/07/12 00:03:30;;;;;;;;;;;;;;;20.06;83.84;97847.28;10327841;28;19967;-50
2023/07/12 00:08:31;;;;;;;;;;;;;;;20.07;83.53;97846.34;10342440;28;19956;-49
2023/07/12 00:13:30;;;;;;;;;;;;;;;20.04;83.53;97847.31;10327230;28;20003;-52
2023/07/12 00:18:29;;;;;;;;;;;;;;;20.01;83.67;97847.44;10326939;28;19923;-51
2023/07/12 00:23:28;;;;;;;;;;;;;;;19.97;83.83;97842.34;10327415;28;19921;-50
2023/07/12 00:28:27;;;;;;;;;;;;;;;19.83;84.24;97835.81;10326733;28;20426;-51
2023/07/12 00:33:26;;;;;;;;;;;;;;;19.79;84.16;97826.31;10326863;28;19963;-51
2023/07/12 00:38:26;;;;;;;;;;;;;;;19.73;84.38;97826.53;10326102;28;19960;-51
2023/07/12 00:43:33;;;;;;;;;;;;;;;19.70;84.52;97817.88;10326648;28;19960;-53
2023/07/12 00:48:32;;;;;;;;;;;;;;;19.66;85.08;97819.78;10325626;28;19968;-50
2023/07/12 00:53:31;;;;;;;;;;;;;;;19.56;85.57;97828.94;10325257;28;19948;-52
2023/07/12 00:58:35;;;;;;;;;;;;;;;19.45;85.94;97822.25;10324805;28;20010;-52
2023/07/12 01:03:36;;;;;;;;;;;;;;;19.40;85.68;97818.91;10325087;28;20467;-50
2023/07/12 01:08:35;;;;;;;;;;;;;;;19.35;85.40;97818.22;10324672;28;19956;-51
2023/07/12 01:13:34;;;;;;;;;;;;;;;19.28;85.49;97819.38;10325123;28;19965;-51
2023/07/12 01:18:33;;;;;;;;;;;;;;;19.26;85.48;97823.81;10324626;28;20012;-51
2023/07/12 01:23:31;;;;;;;;;;;;;;;19.21;86.12;97818.72;10324522;28;19925;-52
2023/07/12 01:28:30;;;;;;;;;;;;;;;19.15;85.97;97823.31;10299799;28;20367;-51
2023/07/12 01:33:29;;;;;;;;;;;;;;;19.17;85.45;97821.50;10283593;28;19913;-50
2023/07/12 01:38:28;;;;;;;;;;;;;;;19.11;85.71;97813.81;10283820;28;19964;-51
2023/07/12 01:43:27;;;;;;;;;;;;;;;19.04;86.39;97821.03;10283525;28;20048;-52
2023/07/12 01:48:25;;;;;;;;;;;;;;;18.96;86.76;97818.69;10284490;28;20484;-50
2023/07/12 01:53:24;;;;;;;;;;;;;;;18.93;86.71;97826.69;10286525;28;20408;-49
2023/07/12 01:58:23;;;;;;;;;;;;;;;18.85;87.10;97831.31;10284652;28;19921;-49
2023/07/12 02:03:22;;;;;;;;;;;;;;;18.75;87.03;97830.78;10286791;28;19921;-52
2023/07/12 02:08:21;;;;;;;;;;;;;;;18.74;86.76;97828.22;10292094;28;20016;-53
2023/07/12 02:13:21;;;;;;;;;;;;;;;18.72;86.72;97832.66;10291360;28;20364;-51
2023/07/12 02:18:20;;;;;;;;;;;;;;;18.67;86.73;97842.44;10291730;28;19949;-50
2023/07/12 02:23:19;;;;;;;;;;;;;;;18.60;87.04;97853.13;10291097;28;19929;-51
2023/07/12 02:28:17;;;;;;;;;;;;;;;18.61;86.79;97849.59;10290795;28;20426;-51
2023/07/12 02:33:16;;;;;;;;;;;;;;;18.59;86.70;97856.66;10290387;28;20562;-52
2023/07/12 02:38:15;;;;;;;;;;;;;;;18.56;86.61;97856.75;10290409;28;19914;-50
2023/07/12 02:43:13;;;;;;;;;;;;;;;18.52;86.75;97849.88;10290500;28;19953;-51
2023/07/12 02:48:12;;;;;;;;;;;;;;;18.53;86.49;97859.50;10290259;28;20246;-51
2023/07/12 02:53:17;;;;;;;;;;;;;;;18.49;86.45;97860.50;10292591;28;19913;-49
2023/07/12 02:58:16;;;;;;;;;;;;;;;18.47;86.87;97862.28;10290430;28;20439;-52
2023/07/12 03:03:15;;;;;;;;;;;;;;;18.46;87.41;97867.63;10289611;28;20436;-50
2023/07/12 03:08:14;;;;;;;;;;;;;;;18.46;87.63;97875.50;10289090;28;19920;-51
2023/07/12 03:13:12;;;;;;;;;;;;;;;18.35;87.84;97881.06;10288957;28;19921;-51
2023/07/12 03:18:11;;;;;;;;;;;;;;;18.42;87.58;97895.75;10290166;28;20009;-49
2023/07/12 03:23:10;;;;;;;;;;;;;;;18.41;87.71;97888.78;10291979;28;19918;-52
2023/07/12 03:28:09;;;;;;;;;;;;;;;18.39;87.61;97895.84;10292547;28;19936;-52
2023/07/12 03:33:07;;;;;;;;;;;;;;;18.40;87.26;97900.19;10291425;28;19921;-52
2023/07/12 03:38:06;;;;;;;;;;;;;;;18.37;86.61;97902.91;10292425;28;19917;-49
2023/07/12 03:43:05;;;;;;;;;;;;;;;18.40;86.56;97901.03;10291769;28;19917;-51
2023/07/12 03:48:04;;;;;;;;;;;;;;;18.44;86.27;97899.19;10291424;28;19921;-51
2023/07/12 03:53:02;;;;;;;;;;;;;;;18.50;86.05;97901.66;10291877;28;19928;-50
2023/07/12 03:58:02;;;;;;;;;;;;;;;18.47;86.34;97909.59;10291197;28;20631;-52
2023/07/12 04:03:01;;;;;;;;;;;;;;;18.60;86.06;97918.84;10291459;28;19967;-50
2023/07/12 04:07:59;;;;;;;;;;;;;;;18.58;86.46;97915.41;10292075;28;19960;-52
2023/07/12 04:12:58;;;;;;;;;;;;;;;18.71;86.08;97902.75;10330726;28;19913;-52
2023/07/12 04:17:57;;;;;;;;;;;;;;;18.91;85.43;97902.13;10329832;28;19994;-51
2023/07/12 04:22:56;;;;;;;;;;;;;;;19.08;84.77;97904.19;10326262;28;19952;-51
2023/07/12 04:27:54;;;;;;;;;;;;;;;19.28;83.69;97903.56;10317233;28;19923;-50
2023/07/12 04:33:37;;;;;;;21.35;14.98;;;;;;;19.41;83.26;97904.84;10293473;27;20191;-51
2023/07/12 04:38:37;;;;;;;24.77;15.73;;;;;;;19.41;82.94;97889.03;10340763;28;20541;-52
2023/07/12 04:43:36;;;;;;;22.48;14.73;;;;;;;19.51;82.83;97902.78;10358238;28;20521;-51
2023/07/12 04:48:35;;;;;;;24.27;14.65;;;;;;;19.63;82.68;97894.47;10358233;28;20067;-51
2023/07/12 04:53:34;;;;;;;22.27;15.40;;;;;;;19.80;82.36;97899.13;10356643;28;20037;-50
2023/07/12 04:58:33;;;;;;;27.65;15.82;;;;;;;20.00;82.11;97893.16;10357928;28;20137;-52
2023/07/12 05:03:32;;;;;;;22.10;14.93;;;;;;;20.10;81.95;97906.84;10357941;28;20136;-49
2023/07/12 05:08:31;;;;;;;20.77;14.98;;;;;;;20.10;82.05;97914.75;10358443;28;20112;-50
2023/07/12 05:13:30;;;;;;;24.08;16.08;;;;;;;20.15;81.85;97897.00;10357163;28;20025;-51
2023/07/12 05:18:29;;;;;;;22.80;15.98;;;;;;;19.94;81.64;97829.31;10357886;28;20212;-52
2023/07/12 05:23:28;;;;;;;27.42;15.40;;;;;;;20.52;81.07;97900.91;10357258;28;20084;-52
2023/07/12 05:28:27;;;;;;;22.70;14.65;;;;;;;20.62;79.88;97902.25;10356762;28;20191;-49
2023/07/12 05:33:26;;;;;;;21.13;14.48;;;;;;;20.88;79.44;97897.72;10355539;28;20041;-50
2023/07/12 05:38:25;;;;;;;20.10;15.02;;;;;;;21.02;78.87;97905.06;10350551;28;20039;-50
2023/07/12 05:43:24;;;;;;;21.50;13.75;;;;;;;21.26;76.55;97897.94;10335805;28;20135;-47
2023/07/12 05:48:24;;;;;;;18.02;14.27;;;;;;;21.49;75.24;97889.91;10327528;28;20519;-51
2023/07/12 05:53:23;;;;;;;17.83;13.95;;;;;;;21.27;75.39;97846.88;10327037;28;20072;-54
2023/07/12 05:58:22;;;;;;;20.67;14.07;;;;;;;21.67;74.10;97887.41;10324772;28;20052;-50
2023/07/12 06:03:21;;;;;;;18.58;14.38;;;;;;;21.73;74.18;97892.41;10327759;28;20112;-52
2023/07/12 06:08:21;;;;;;;19.60;13.88;;;;;;;21.97;74.19;97901.03;10326838;28;20037;-49
2023/07/12 06:13:20;;;;;;;15.80;14.05;;;;;;;22.16;73.50;97901.09;10327344;28;20128;-51
2023/07/12 06:18:19;;;;;;;25.85;14.40;;;;;;;22.38;73.16;97895.66;10327377;28;20108;-50
2023/07/12 06:23:18;;;;;;;19.27;13.75;;;;;;;22.64;73.51;97901.53;10324592;28;20125;-51
2023/07/12 06:28:17;;;;;;;16.88;13.93;;;;;;;22.89;71.50;97904.75;10326521;28;20033;-50
2023/07/12 06:33:16;;;;;;;17.88;14.45;;;;;;;23.09;70.58;97901.13;10326902;28;20113;-49
2023/07/12 06:38:16;;;;;;;18.10;13.73;;;;;;;23.01;68.92;97890.06;10326589;28;20433;-52
2023/07/12 06:43:15;;;;;;;17.95;13.68;;;;;;;23.41;68.79;97898.66;10326053;28;20136;-50
2023/07/12 06:48:14;;;;;;;15.10;12.93;;;;;;;23.63;67.71;97901.97;10326064;28;20039;-50
2023/07/12 06:53:13;;;;;;;15.93;14.00;;;;;;;23.85;68.16;97900.84;10321925;28;20025;-51
2023/07/12 06:58:12;;;;;;;14.45;12.95;;;;;;;24.26;65.29;97905.75;10325568;28;20112;-51
2023/07/12 07:03:13;;;;;;;16.20;13.68;;;;;;;24.51;65.36;97901.75;10326473;28;20025;-51
2023/07/12 07:08:14;;;;;;;16.42;13.18;;;;;;;24.77;64.45;97893.19;10325047;28;20057;-50
2023/07/12 07:13:13;;;;;;;16.55;13.13;;;;;;;24.93;61.93;97882.59;10325589;28;20144;-50
2023/07/12 07:18:12;;;;;;;20.55;13.00;;;;;;;25.26;60.77;97887.75;10322441;28;20120;-52
2023/07/12 07:23:12;;;;;;;18.88;12.48;;;;;;;25.72;59.18;97893.03;10321603;28;20072;-52
2023/07/12 07:28:11;;;;;;;15.15;11.65;;;;;;;26.10;58.84;97887.16;10327060;28;20073;-52
2023/07/12 07:33:10;;;;;;;14.45;11.73;;;;;;;26.46;56.15;97883.16;10323429;28;20060;-52
2023/07/12 07:38:09;;;;;;;18.70;12.75;;;;;;;26.86;56.47;97880.66;10327095;28;20029;-53
2023/07/12 07:43:10;;;;;;;15.90;12.07;;;;;;;26.74;54.04;97817.50;10327717;28;20128;-52
2023/07/12 07:48:10;;;;;;;16.92;11.23;;;;;;;27.10;52.37;97877.31;10327053;28;20096;-52
2023/07/12 07:53:11;;;;;;;14.50;10.60;;;;;;;27.34;52.04;97878.31;10328134;28;20079;-52
2023/07/12 07:58:11;;;;;;;15.32;12.70;;;;;;;27.63;52.58;97867.50;10327313;28;20081;-52
2023/07/12 08:03:11;;;;;;;16.77;12.25;;;;;;;27.80;53.77;97872.56;10326622;28;20079;-53
2023/07/12 08:08:10;;;;;;;14.18;11.80;;;;;;;28.15;53.68;97876.38;10326200;28;20140;-51
2023/07/12 08:13:12;;;;;;;15.80;12.13;;;;;;;28.37;51.68;97859.72;10326888;28;20124;-52
2023/07/12 08:18:12;;;;;;;15.98;11.90;;;;;;;28.53;50.18;97868.31;10324588;28;20131;-53
2023/07/12 08:23:11;;;;;;;18.48;11.68;;;;;;;28.75;49.58;97882.81;10326167;28;20533;-51
2023/07/12 08:28:09;;;;;;;20.45;13.35;;;;;;;28.84;49.83;97882.97;10322280;28;20407;-53
2023/07/12 08:33:09;;;;;;;18.55;12.50;;;;;;;29.02;49.39;97843.38;10324284;28;20050;-51
2023/07/12 08:38:08;;;;;;;20.70;11.65;;;;;;;29.58;50.69;97873.94;10324563;28;20087;-50
2023/07/12 08:43:11;;;;;;;15.05;11.25;;;;;;;29.70;47.76;97867.66;10322712;28;20120;-50
2023/07/12 08:48:20;;;;;;;20.70;12.10;;;;;;;29.85;47.30;97863.81;10323028;28;20204;-53
2023/07/12 08:53:22;;;;;;;16.17;11.55;;;;;;;30.05;46.01;97858.75;10325391;28;20125;-51
2023/07/12 08:58:26;;;;;;;16.65;12.10;;;;;;;30.23;46.14;97867.97;10324927;28;20140;-52
2023/07/12 09:03:25;;;;;;;15.93;11.43;;;;;;;30.47;45.07;97869.69;10323930;28;20079;-50
2023/07/12 09:08:38;;;;;;;14.57;9.57;;;;;;;30.47;43.63;97834.88;10322874;28;20069;-51
2023/07/12 09:13:38;;;;;;;13.52;9.18;;;;;;;30.48;41.16;97780.34;10323232;28;20724;-51
2023/07/12 09:18:37;;;;;;;13.77;9.70;;;;;;;31.16;42.02;97848.81;10329041;28;20060;-52
2023/07/12 09:23:39;;;;;;;15.80;8.75;;;;;;;31.51;39.12;97838.78;10336416;28;20053;-52
2023/07/12 09:28:39;;;;;;;12.18;8.50;;;;;;;31.65;36.97;97825.03;10326669;28;20062;-50
2023/07/12 09:33:38;;;;;;;15.45;9.60;;;;;;;31.97;38.80;97821.41;10334456;28;20069;-51
2023/07/12 09:38:38;;;;;;;13.57;9.40;;;;;;;32.11;40.22;97825.59;10334233;28;20029;-52
2023/07/12 09:43:38;;;;;;;13.27;9.93;;;;;;;32.19;39.42;97823.06;10334105;28;20757;-51
2023/07/12 09:48:48;;;;;;;12.98;10.65;;;;;;;32.33;39.44;97827.22;10327763;28;20100;-52
2023/07/12 09:53:56;;;;;;;14.32;9.98;;;;;;;32.45;39.20;97830.63;10329983;28;20120;-51
2023/07/12 09:58:55;;;;;;;11.57;8.68;;;;;;;32.32;38.21;97822.81;10331637;28;20073;-52
2023/07/12 10:03:56;;;;;;;11.10;8.80;;;;;;;32.29;37.09;97794.38;10329689;28;20033;-52
2023/07/12 10:09:22;;;;;;;12.23;9.68;;;;;;;32.50;37.00;97809.56;10332572;28;20067;-51
2023/07/12 10:14:29;;;;;;;12.50;8.95;;;;;;;32.28;37.43;97806.13;10333294;28;20063;-52
2023/07/12 10:19:36;;;;;;;12.07;8.97;;;;;;;32.39;37.88;97797.97;10327057;28;20124;-51
2023/07/12 10:24:40;;;;;;;12.02;9.20;;;;;;;32.35;37.80;97793.84;10329587;28;20355;-51
2023/07/12 10:29:59;;;;;;;14.48;8.65;;;;;;;32.41;36.89;97793.31;10323448;28;20139;-51
2023/07/12 10:35:04;;;;;;;11.68;8.88;;;;;;;32.69;35.46;97789.97;10322219;28;20120;-52
2023/07/12 10:40:05;;;;;;;12.55;9.02;;;;;;;32.94;36.44;97789.41;10324822;28;20048;-53
2023/07/12 10:45:06;;;;;;;12.63;8.65;;;;;;;33.02;36.21;97776.13;10326772;28;20623;-53
2023/07/12 10:50:19;;;;;;;14.43;10.30;;;;;;;33.19;35.84;97779.13;10328156;28;20084;-50
2023/07/12 10:55:42;;;;;;;11.95;9.68;;;;;;;33.37;34.31;97763.94;10326509;28;20076;-53
2023/07/12 11:00:58;;;;;;;10.68;9.00;;;;;;;33.60;34.43;97767.13;10327914;28;20533;-53
2023/07/12 11:06:04;;;;;;;11.35;8.70;;;;;;;33.74;33.85;97764.97;10317611;28;20081;-51
2023/07/12 11:11:09;;;;;;;10.95;8.60;;;;;;;33.72;33.90;97761.59;10327790;28;20149;-53
2023/07/12 11:16:19;;;;;;;12.27;8.95;;;;;;;33.91;34.15;97766.91;10327202;28;20072;-51
2023/07/12 11:21:45;;;;;;;12.77;8.80;;;;;;;34.09;33.88;97770.47;10327877;28;20076;-51
2023/07/12 11:26:55;;;;;;;14.68;9.65;;;;;;;33.74;32.13;97728.13;10325842;28;20049;-51
2023/07/12 11:32:14;;;;;;;10.90;8.45;;;;;;;34.00;31.76;97762.44;10325169;28;20522;-50
2023/07/12 11:37:25;;;;;;;15.85;9.63;;;;;;;34.13;32.20;97748.69;10326912;28;20104;-53
2023/07/12 11:42:26;;;;;;;12.40;9.50;;;;;;;34.00;32.71;97738.22;10327581;28;20057;-52
2023/07/12 11:47:26;;;;;;;11.75;8.95;;;;;;;33.74;33.45;97721.91;10327164;28;20059;-53
2023/07/12 11:52:27;;;;;;;11.93;8.50;;;;;;;33.87;31.68;97728.66;10327134;28;20121;-53
2023/07/12 11:57:26;;;;;;;10.35;8.70;;;;;;;34.24;33.24;97719.69;10327526;28;20514;-52
2023/07/12 12:02:25;;;;;;;11.45;8.95;;;;;;;34.52;32.58;97711.56;10327082;28;20534;-53
2023/07/12 12:07:28;;;;;;;10.77;8.77;;;;;;;34.81;31.54;97714.03;10325629;28;20549;-52
2023/07/12 12:12:32;;;;;;;11.23;8.48;;;;;;;35.01;30.73;97705.75;10323068;28;20116;-52
2023/07/12 12:17:35;;;;;;;18.15;9.80;;;;;;;35.13;30.64;97704.53;10320851;28;20112;-53
2023/07/12 12:22:40;;;;;;;13.90;9.43;;;;;;;35.07;31.44;97661.97;10324309;28;20053;-51
2023/07/12 12:27:39;;;;;;;13.85;9.40;;;;;;;35.48;32.00;97670.31;10324173;28;20064;-51
2023/07/12 12:32:39;;;;;;;12.77;10.13;;;;;;;35.95;32.22;97670.72;10325295;28;20113;-51
2023/07/12 12:37:39;;;;;;;13.77;9.90;;;;;;;36.17;31.82;97677.38;10326570;28;20068;-52
2023/07/12 12:42:52;;;;;;;14.32;10.10;;;;;;;36.45;31.29;97668.16;10327702;28;20065;-52
2023/07/12 12:47:51;;;;;;;13.13;9.43;;;;;;;36.74;30.45;97656.84;10326945;28;20072;-52
2023/07/12 12:52:49;;;;;;;12.98;9.63;;;;;;;36.68;29.84;97665.66;10329613;28;20042;-53
2023/07/12 12:57:48;;;;;;;13.40;9.88;;;;;;;36.57;31.66;97662.25;10334530;28;20398;-53
2023/07/12 13:02:49;;;;;;;11.27;9.40;;;;;;;36.57;29.43;97640.63;10333985;28;20022;-53
2023/07/12 13:07:50;;;;;;;10.93;9.15;;;;;;;36.63;29.02;97647.25;10333834;28;20090;-53
2023/07/12 13:12:50;;;;;;;11.38;8.93;;;;;;;36.74;29.32;97662.25;10333937;28;20073;-52
2023/07/12 13:17:50;;;;;;;11.70;8.73;;;;;;;36.65;28.63;97652.47;10333061;28;20061;-53
2023/07/12 13:22:49;;;;;;;14.25;8.77;;;;;;;36.84;28.81;97657.53;10328995;28;20104;-53
2023/07/12 13:27:54;;;;;;;11.10;8.70;;;;;;;36.70;30.03;97648.25;10328759;28;20030;-54
2023/07/12 13:32:53;;;;;;;11.52;8.88;;;;;;;36.74;29.64;97663.09;10329602;28;20121;-53
2023/07/12 13:37:52;;;;;;;12.05;9.43;;;;;;;36.75;29.85;97655.84;10328845;28;20040;-53
2023/07/12 13:42:51;;;;;;;11.32;8.50;;;;;;;36.88;28.66;97641.78;10329264;28;20024;-51
2023/07/12 13:47:50;;;;;;;11.15;9.15;;;;;;;36.92;30.26;97657.50;10327417;28;20029;-52
2023/07/12 13:52:49;;;;;;;12.40;9.23;;;;;;;36.82;29.49;97646.03;10326328;28;20070;-52
2023/07/12 13:57:48;;;;;;;16.08;8.88;;;;;;;36.73;29.55;97644.34;10328358;28;20043;-53
2023/07/12 14:02:51;;;;;;;12.75;8.85;;;;;;;36.61;29.44;97634.91;10327947;28;20157;-52
2023/07/12 14:07:50;;;;;;;10.63;8.73;;;;;;;36.77;29.46;97637.59;10328221;28;20073;-53
2023/07/12 14:12:49;;;;;;;22.88;9.60;;;;;;;36.50;30.26;97617.13;10328891;28;20398;-52
2023/07/12 14:17:48;;;;;;;12.38;10.02;;;;;;;36.37;30.00;97596.03;10327650;28;20033;-54
2023/07/12 14:22:47;;;;;;;13.27;9.18;;;;;;;36.31;30.55;97629.97;10326999;28;20116;-55
2023/07/12 14:27:47;;;;;;;13.45;8.90;;;;;;;36.19;30.95;97625.91;10327657;28;20068;-54
2023/07/12 14:32:46;;;;;;;11.32;9.18;;;;;;;36.39;30.05;97624.56;10326230;28;20686;-52
2023/07/12 14:37:46;;;;;;;9.93;8.77;;;;;;;36.29;30.30;97587.91;10327030;28;20503;-54
2023/07/12 14:42:45;;;;;;;10.43;8.73;;;;;;;36.59;30.80;97624.25;10327533;28;20068;-54
2023/07/12 14:47:44;;;;;;;11.45;9.05;;;;;;;36.55;30.76;97614.78;10326430;28;20115;-53
2023/07/12 14:52:45;;;;;;;10.70;8.80;;;;;;;36.69;29.84;97618.66;10324298;28;20073;-53
2023/07/12 14:57:44;;;;;;;13.93;9.63;;;;;;;36.48;30.38;97598.38;10326197;28;20076;-53
2023/07/12 15:02:53;;;;;;;11.98;8.30;;;;;;;36.34;31.20;97590.94;10326003;28;20549;-53
2023/07/12 15:07:52;;;;;;;12.63;9.18;;;;;;;36.36;31.34;97613.25;10326444;28;20431;-53
2023/07/12 15:13:01;;;;;;;11.73;9.35;;;;;;;36.31;32.45;97607.50;10325176;28;20409;-53
2023/07/12 15:18:00;;;;;;;12.63;9.07;;;;;;;36.28;32.27;97594.34;10324265;28;20128;-53
2023/07/12 15:22:59;;;;;;;11.63;8.80;;;;;;;36.27;31.86;97598.03;10323853;28;20024;-53
2023/07/12 15:27:58;;;;;;;12.52;8.82;;;;;;;36.23;32.79;97584.03;10324487;28;20506;-53
2023/07/12 15:32:57;;;;;;;11.77;9.57;;;;;;;36.18;31.94;97589.94;10324724;28;20034;-53
2023/07/12 15:37:59;;;;;;;12.60;9.85;;;;;;;36.09;32.60;97584.66;10324480;28;20091;-53
2023/07/12 15:42:58;;;;;;;12.43;9.73;;;;;;;36.02;33.16;97573.69;10324752;28;20108;-53
2023/07/12 15:47:57;;;;;;;12.60;8.88;;;;;;;35.83;32.94;97579.38;10323277;28;20033;-53
2023/07/12 15:52:56;;;;;;;13.18;8.93;;;;;;;35.65;34.49;97568.72;10323674;28;20128;-53
2023/07/12 15:57:55;;;;;;;14.32;9.50;;;;;;;35.58;34.72;97575.75;10324044;28;20112;-52
2023/07/12 16:02:53;;;;;;;11.10;9.45;;;;;;;35.53;37.30;97573.53;10323882;28;20035;-51
2023/07/12 16:07:52;;;;;;;13.40;9.85;;;;;;;35.54;38.42;97572.53;10322833;28;20112;-52
2023/07/12 16:12:51;;;;;;;11.60;10.10;;;;;;;35.40;37.51;97562.34;10322837;28;20033;-51
2023/07/12 16:17:50;;;;;;;14.23;10.70;;;;;;;35.38;37.68;97577.84;10323712;28;20541;-52
2023/07/12 16:22:49;;;;;;;16.50;11.35;;;;;;;35.22;38.95;97567.84;10323177;28;20491;-52
2023/07/12 16:27:48;;;;;;;16.15;11.20;;;;;;;35.19;40.33;97573.56;10322583;28;20025;-51
2023/07/12 16:32:47;;;;;;;13.82;10.48;;;;;;;35.10;40.44;97586.16;10322886;28;20041;-54
2023/07/12 16:37:47;;;;;;;15.98;10.10;;;;;;;34.76;41.31;97578.88;10322969;28;20029;-52
2023/07/12 16:42:46;;;;;;;23.48;11.00;;;;;;;34.60;42.19;97579.56;10322214;28;20120;-51
2023/07/12 16:47:44;;;;;;;16.25;10.57;;;;;;;34.45;42.76;97595.47;10322112;28;20101;-52
2023/07/12 16:52:43;;;;;;;12.68;10.60;;;;;;;34.21;43.70;97589.84;10321057;28;20128;-52
2023/07/12 16:57:42;;;;;;;14.93;10.55;;;;;;;33.95;44.18;97603.22;10322574;28;20132;-51
2023/07/12 17:02:41;;;;;;;12.45;9.80;;;;;;;33.67;44.70;97612.16;10323402;28;20778;-51
2023/07/12 17:07:40;;;;;;;13.23;9.75;;;;;;;32.73;44.95;97485.91;10321943;28;20133;-52
2023/07/12 17:12:39;;;;;;;15.57;10.20;;;;;;;33.11;45.60;97599.66;10322460;28;20152;-53
2023/07/12 17:17:38;;;;;;;12.32;10.20;;;;;;;32.98;45.89;97612.56;10322800;28;20037;-54
2023/07/12 17:22:38;;;;;;;14.48;11.10;;;;;;;32.77;46.53;97612.78;10320978;28;20565;-53
2023/07/12 17:27:37;;;;;;;15.23;10.52;;;;;;;32.48;47.15;97612.78;10322586;28;20113;-53
2023/07/12 17:32:36;;;;;;;14.15;11.30;;;;;;;32.27;47.34;97618.28;10320462;28;20063;-53
2023/07/12 17:37:35;;;;;;;16.63;10.93;;;;;;;32.00;47.89;97609.91;10323188;28;20117;-50
2023/07/12 17:42:34;;;;;;;17.40;11.15;;;;;;;31.68;49.36;97611.97;10329468;28;20021;-50
2023/07/12 17:47:33;;;;;;;13.40;11.00;;;;;;;31.37;50.69;97610.16;10329320;28;20030;-51
2023/07/12 17:52:32;;;;;;;15.82;11.40;;;;;;;31.01;52.05;97614.25;10328678;28;20151;-49
2023/07/12 17:57:31;;;;;;;16.90;11.45;;;;;;;30.65;52.99;97626.28;10327772;28;20037;-49
2023/07/12 18:02:35;;;;;;;14.57;11.63;;;;;;;30.28;54.23;97630.22;10328386;28;20036;-52
2023/07/12 18:07:34;;;;;;;15.90;11.13;;;;;;;29.89;55.36;97648.56;10328252;28;20080;-50
2023/07/12 18:12:33;;;;;;;20.13;13.63;;;;;;;29.58;55.68;97655.53;10328185;28;20145;-49
2023/07/12 18:17:32;;;;;;;17.73;12.70;;;;;;;29.32;57.17;97664.75;10327877;28;20132;-49
2023/07/12 18:22:31;;;;;;;15.60;12.40;;;;;;;29.03;57.46;97667.88;10327497;28;20112;-51
2023/07/12 18:27:32;;;;;;;20.67;13.57;;;;;;;28.75;58.17;97669.16;10327572;28;20147;-48
2023/07/12 18:32:31;;;;;;;23.40;16.25;;;;;;;28.65;59.91;97675.16;10323494;28;20570;-52
2023/07/12 18:37:30;;;;;;;27.05;19.42;;;;;;;28.39;62.23;97692.31;10326619;28;20087;-52
2023/07/12 18:42:29;;;;;;;21.30;14.93;;;;;;;28.19;62.44;97680.44;10326057;28;20397;-51
2023/07/12 18:47:28;;;;;;;18.55;13.18;;;;;;;28.00;62.00;97703.09;10326822;28;20104;-52
2023/07/12 18:52:27;;;;;;;22.02;13.23;;;;;;;27.87;62.33;97706.75;10324775;28;21326;-52
2023/07/12 18:57:26;;;;;;;16.55;13.52;;;;;;;27.67;62.62;97706.38;10325982;28;20042;-52
2023/07/12 19:02:28;;;;;;;19.45;13.07;;;;;;;27.51;62.74;97711.94;10323396;28;20100;-51
2023/07/12 19:07:29;;;;;;;16.00;12.45;;;;;;;27.38;63.18;97703.94;10325872;28;20069;-50
2023/07/12 19:12:28;;;;;;;21.35;14.20;;;;;;;27.06;67.04;97700.00;10325441;28;20156;-52
2023/07/12 19:17:27;;;;;;;17.23;14.32;;;;;;;26.90;68.55;97722.34;10325276;28;20048;-52
2023/07/12 19:22:26;;;;;;;17.25;13.90;;;;;;;26.69;68.86;97684.69;10325603;28;20021;-53
2023/07/12 19:27:26;;;;;;;14.10;11.27;;;;;;;26.77;65.34;97727.63;10324732;28;20153;-53
2023/07/12 19:32:24;;;;;;;18.95;13.13;;;;;;;26.41;64.51;97682.19;10324278;28;20188;-53
2023/07/12 19:37:24;;;;;;;12.30;11.00;;;;;;;26.52;64.80;97717.78;10324468;28;20254;-52
2023/07/12 19:42:23;;;;;;;10.98;8.15;;;;;;;26.42;60.83;97727.34;10323350;28;20076;-51
2023/07/12 19:47:22;;;;;;;12.73;8.45;;;;;;;26.38;58.56;97725.81;10324503;28;20364;-53
2023/07/12 19:52:23;;;;;;;12.43;7.63;;;;;;;26.15;56.97;97720.16;10324404;28;20120;-52
2023/07/12 19:57:23;;;;;;;11.00;8.23;;;;;;;26.04;56.85;97743.06;10326083;28;20587;-52
2023/07/12 20:02:24;;;;;;;10.90;8.40;;;;;;;25.96;56.91;97732.94;10330236;28;20141;-51
2023/07/12 20:07:23;;;;;;;11.43;8.88;;;;;;;25.90;57.45;97741.28;10324311;28;20120;-50
2023/07/12 20:12:22;;;;;;;12.73;8.18;;;;;;;25.85;57.67;97738.06;10323268;28;20132;-50
2023/07/12 20:17:21;;;;;;;13.18;10.98;;;;;;;25.81;58.51;97747.19;10323481;28;20116;-51
2023/07/12 20:22:22;;;;;;;13.75;10.15;;;;;;;25.69;61.32;97739.06;10323713;28;20021;-52
2023/07/12 20:27:21;;;;;;;12.82;9.45;;;;;;;25.53;59.35;97747.09;10323371;28;20072;-50
2023/07/12 20:32:20;;;;;;;13.45;9.55;;;;;;;25.40;61.95;97742.63;10322502;28;20462;-52
2023/07/12 20:37:19;;;;;;;14.75;11.07;;;;;;;25.30;61.63;97742.34;10323634;28;20406;-52
2023/07/12 20:42:19;;;;;;;18.27;13.02;;;;;;;24.96;66.80;97704.53;10322788;28;20047;-50
2023/07/12 20:47:21;;;;;;;19.98;14.13;;;;;;;25.13;69.93;97747.81;10322665;28;20550;-51
2023/07/12 20:52:24;;;;;;;18.88;14.95;;;;;;;24.97;71.33;97751.41;10322816;28;20133;-52
2023/07/12 20:57:23;;;;;;;18.10;14.10;;;;;;;24.90;73.12;97756.22;10322625;28;20104;-53
2023/07/12 21:02:22;;;;;;;17.48;14.82;;;;;;;24.84;73.83;97756.53;10321818;28;20083;-52
2023/07/12 21:07:22;;;;;;;18.95;15.35;;;;;;;24.83;75.17;97776.06;10323164;28;20108;-52
2023/07/12 21:12:24;;;;;;;19.30;15.45;;;;;;;24.67;76.48;97769.94;10323891;28;20121;-51
2023/07/12 21:17:23;;;;;;;22.13;18.15;;;;;;;24.49;77.23;97755.94;10329575;28;20073;-50
2023/07/12 21:22:22;;;;;;;24.85;17.02;;;;;;;24.53;78.26;97775.19;10329431;28;20505;-51
2023/07/12 21:27:22;;;;;;;18.40;14.27;;;;;;;24.44;77.58;97774.75;10330121;28;20100;-52
2023/07/12 21:32:21;;;;;;;17.60;12.73;;;;;;;24.35;76.08;97764.66;10329011;28;20129;-49
2023/07/12 21:37:20;;;;;;;18.63;11.25;;;;;;;24.03;75.28;97724.91;10329327;28;20148;-51
2023/07/12 21:42:19;;;;;;;14.20;12.02;;;;;;;24.10;75.39;97753.69;10329502;28;20068;-52
2023/07/12 21:47:18;;;;;;;15.48;11.20;;;;;;;24.02;75.53;97760.28;10329271;28;20037;-49
2023/07/12 21:52:17;;;;;;;18.25;12.32;;;;;;;23.88;75.99;97765.50;10328639;28;20026;-51
2023/07/12 21:57:16;;;;;;;14.77;12.50;;;;;;;23.81;76.75;97780.03;10329111;28;20645;-52
2023/07/12 22:02:18;;;;;;;17.40;12.52;;;;;;;23.71;77.36;97766.41;10328589;28;20038;-51
2023/07/12 22:07:17;;;;;;;17.42;12.45;;;;;;;23.66;77.67;97775.56;10328207;28;20121;-50
2023/07/12 22:12:16;;;;;;;17.35;13.98;;;;;;;23.55;78.89;97771.69;10327884;28;20022;-52
2023/07/12 22:17:15;;;;;;;18.67;14.55;;;;;;;23.45;80.09;97770.44;10324788;28;20108;-53
2023/07/12 22:22:14;;;;;;;17.85;13.73;;;;;;;23.30;81.48;97780.03;10320653;28;20039;-51
2023/07/12 22:27:13;;;;;;;16.88;14.73;;;;;;;23.25;81.73;97781.22;10321382;28;20542;-50
2023/07/12 22:32:12;;;;;;;21.23;15.40;;;;;;;23.21;81.87;97785.81;10324108;28;20491;-50
2023/07/12 22:37:11;;;;;;;19.40;15.07;;;;;;;23.13;82.00;97786.19;10328127;28;20083;-54
2023/07/12 22:42:10;;;;;;;21.00;15.88;;;;;;;23.03;82.99;97790.25;10327627;28;20108;-50
2023/07/12 22:47:09;;;;;;;19.20;16.80;;;;;;;22.94;83.81;97793.38;10327812;28;20112;-51
2023/07/12 22:52:09;;;;;;;20.40;16.58;;;;;;;22.92;84.49;97792.59;10327097;28;20021;-52
2023/07/12 22:57:08;;;;;;;19.58;17.38;;;;;;;22.72;85.64;97796.22;10328132;28;20079;-53
2023/07/12 23:02:06;;;;;;;20.35;18.15;;;;;;;22.59;86.52;97795.94;10326621;28;20096;-49
2023/07/12 23:07:05;;;;;;;18.27;16.40;;;;;;;22.56;86.46;97788.16;10326659;28;20045;-51
2023/07/12 23:12:08;;;;;;;18.73;15.45;;;;;;;22.45;87.03;97785.19;10326665;28;20026;-51
2023/07/12 23:17:07;;;;;;;19.50;13.75;;;;;;;22.21;86.85;97756.38;10326619;28;20985;-51
2023/07/12 23:22:12;;;;;;;15.77;13.02;;;;;;;22.28;85.47;97771.00;10326151;28;20530;-50